Portada
METAR-TAF:

METAR-TAF

Aeroports :

Franklin County, Vermont, Estats Units d'Amèrica

latitud: 44-56-25N, longitud: 073-05-51W, altitud: 69 m

Observació

L'informe es va fer fa 10 minuts, a les 07:36 UTC
Vent 6 kt del Sud
Temperatura 2°C
Humitat 60%
Pressió 1019 hPa
Visibilitat: 16.1 km
Cel ennuvolat a una alçada de 4400 ft

METAR: KFSO 150736Z AUTO 18006KT 10SM BKN044 02/M05 A3008 RMK AO2 T00201055

Hora: 02:46 (07:46 UTC)


TAF: manca

Observacions i pronòstics meteorològics de més de 4000 aeroports (METAR i TAF).

Les estacions disponibles són els punts grocs i vermells al mapa.

Posi el ratolí al punt desitjat per veure el nom de l'estació.

Feu clic per veure les observacions i els pronòstics meteorològics.

Per canviar el mapa: feu clic els botons verds amb una creu de color negre per apropar; al botó verd amb un guió per allunyar la imatge; o en les fletxes verdes per a mapes adjacents.


METAR-TAF: